sensor_id;sensor_type;location;lat;lon;timestamp;P1;durP1;ratioP1;P2;durP2;ratioP2
81619;SDS011;71028;53.410;6.710;2023-07-29T00:01:22;9.98;;;6.75;;
81619;SDS011;71028;53.410;6.710;2023-07-29T00:03:48;9.27;;;6.13;;
81619;SDS011;71028;53.410;6.710;2023-07-29T00:06:14;10.13;;;6.22;;
81619;SDS011;71028;53.410;6.710;2023-07-29T00:08:40;10.55;;;6.63;;
81619;SDS011;71028;53.410;6.710;2023-07-29T00:11:06;10.27;;;6.63;;
81619;SDS011;71028;53.410;6.710;2023-07-29T00:13:32;11.23;;;6.63;;
81619;SDS011;71028;53.410;6.710;2023-07-29T00:15:58;9.50;;;6.28;;
81619;SDS011;71028;53.410;6.710;2023-07-29T00:18:24;8.52;;;6.07;;
81619;SDS011;71028;53.410;6.710;2023-07-29T00:20:50;9.18;;;6.55;;
81619;SDS011;71028;53.410;6.710;2023-07-29T00:23:17;9.30;;;5.45;;
81619;SDS011;71028;53.410;6.710;2023-07-29T00:25:46;12.18;;;6.53;;
81619;SDS011;71028;53.410;6.710;2023-07-29T00:28:12;9.75;;;5.85;;
81619;SDS011;71028;53.410;6.710;2023-07-29T00:30:38;7.95;;;5.38;;
81619;SDS011;71028;53.410;6.710;2023-07-29T00:33:04;11.02;;;6.47;;
81619;SDS011;71028;53.410;6.710;2023-07-29T00:35:30;10.98;;;5.55;;
81619;SDS011;71028;53.410;6.710;2023-07-29T00:37:56;9.77;;;5.97;;
81619;SDS011;71028;53.410;6.710;2023-07-29T00:40:22;9.57;;;6.10;;
81619;SDS011;71028;53.410;6.710;2023-07-29T00:42:49;11.30;;;6.25;;
81619;SDS011;71028;53.410;6.710;2023-07-29T00:45:18;9.60;;;5.40;;
81619;SDS011;71028;53.410;6.710;2023-07-29T00:47:44;9.68;;;6.00;;
81619;SDS011;71028;53.410;6.710;2023-07-29T00:50:11;8.93;;;5.65;;
81619;SDS011;71028;53.410;6.710;2023-07-29T00:52:37;9.02;;;5.32;;
81619;SDS011;71028;53.410;6.710;2023-07-29T00:55:04;9.15;;;5.43;;
81619;SDS011;71028;53.410;6.710;2023-07-29T00:57:30;9.18;;;5.57;;
81619;SDS011;71028;53.410;6.710;2023-07-29T00:59:57;7.82;;;5.25;;
81619;SDS011;71028;53.410;6.710;2023-07-29T01:02:23;7.78;;;4.85;;
81619;SDS011;71028;53.410;6.710;2023-07-29T01:04:55;10.50;;;5.88;;
81619;SDS011;71028;53.410;6.710;2023-07-29T01:14:59;8.40;;;5.15;;
81619;SDS011;71028;53.410;6.710;2023-07-29T01:17:30;9.48;;;5.53;;
81619;SDS011;71028;53.410;6.710;2023-07-29T01:20:11;9.88;;;5.45;;
81619;SDS011;71028;53.410;6.710;2023-07-29T01:22:39;9.23;;;5.35;;
81619;SDS011;71028;53.410;6.710;2023-07-29T01:25:05;8.88;;;5.05;;
81619;SDS011;71028;53.410;6.710;2023-07-29T01:27:31;8.68;;;5.30;;
81619;SDS011;71028;53.410;6.710;2023-07-29T01:29:58;8.35;;;5.00;;
81619;SDS011;71028;53.410;6.710;2023-07-29T01:32:51;8.30;;;5.15;;
81619;SDS011;71028;53.410;6.710;2023-07-29T01:37:40;10.70;;;5.68;;
81619;SDS011;71028;53.410;6.710;2023-07-29T01:40:07;9.63;;;5.90;;
81619;SDS011;71028;53.410;6.710;2023-07-29T01:42:34;9.52;;;5.90;;
81619;SDS011;71028;53.410;6.710;2023-07-29T01:45:00;9.88;;;6.18;;
81619;SDS011;71028;53.410;6.710;2023-07-29T01:47:26;12.25;;;6.25;;
81619;SDS011;71028;53.410;6.710;2023-07-29T01:49:52;10.63;;;6.47;;
81619;SDS011;71028;53.410;6.710;2023-07-29T01:52:18;9.98;;;6.07;;
81619;SDS011;71028;53.410;6.710;2023-07-29T01:54:44;12.27;;;6.32;;
81619;SDS011;71028;53.410;6.710;2023-07-29T01:57:10;10.57;;;6.90;;
81619;SDS011;71028;53.410;6.710;2023-07-29T01:59:36;8.88;;;5.32;;
81619;SDS011;71028;53.410;6.710;2023-07-29T02:02:02;10.07;;;6.13;;
81619;SDS011;71028;53.410;6.710;2023-07-29T02:04:28;9.65;;;5.88;;
81619;SDS011;71028;53.410;6.710;2023-07-29T02:06:54;8.27;;;5.88;;
81619;SDS011;71028;53.410;6.710;2023-07-29T02:09:20;9.80;;;6.38;;
81619;SDS011;71028;53.410;6.710;2023-07-29T02:11:46;8.07;;;5.18;;
81619;SDS011;71028;53.410;6.710;2023-07-29T02:14:12;10.40;;;5.53;;
81619;SDS011;71028;53.410;6.710;2023-07-29T02:16:38;9.20;;;5.90;;
81619;SDS011;71028;53.410;6.710;2023-07-29T02:19:04;9.52;;;6.18;;
81619;SDS011;71028;53.410;6.710;2023-07-29T02:21:30;9.88;;;6.32;;
81619;SDS011;71028;53.410;6.710;2023-07-29T02:23:56;8.70;;;5.82;;
81619;SDS011;71028;53.410;6.710;2023-07-29T02:26:22;9.82;;;5.97;;
81619;SDS011;71028;53.410;6.710;2023-07-29T02:28:48;9.05;;;6.13;;
81619;SDS011;71028;53.410;6.710;2023-07-29T02:31:15;10.00;;;5.75;;
81619;SDS011;71028;53.410;6.710;2023-07-29T02:33:42;10.25;;;6.40;;
81619;SDS011;71028;53.410;6.710;2023-07-29T02:36:08;10.18;;;6.20;;
81619;SDS011;71028;53.410;6.710;2023-07-29T02:38:34;11.75;;;6.10;;
81619;SDS011;71028;53.410;6.710;2023-07-29T02:41:00;10.30;;;5.35;;
81619;SDS011;71028;53.410;6.710;2023-07-29T02:43:26;9.50;;;5.45;;
81619;SDS011;71028;53.410;6.710;2023-07-29T02:45:52;14.82;;;5.93;;
81619;SDS011;71028;53.410;6.710;2023-07-29T02:48:18;8.75;;;5.57;;
81619;SDS011;71028;53.410;6.710;2023-07-29T02:50:44;10.68;;;6.25;;
81619;SDS011;71028;53.410;6.710;2023-07-29T02:53:10;10.98;;;6.88;;
81619;SDS011;71028;53.410;6.710;2023-07-29T02:55:39;12.88;;;6.93;;
81619;SDS011;71028;53.410;6.710;2023-07-29T02:58:05;10.40;;;6.10;;
81619;SDS011;71028;53.410;6.710;2023-07-29T03:00:32;8.98;;;5.90;;
81619;SDS011;71028;53.410;6.710;2023-07-29T03:02:58;10.65;;;6.68;;
81619;SDS011;71028;53.410;6.710;2023-07-29T03:05:27;11.80;;;6.15;;
81619;SDS011;71028;53.410;6.710;2023-07-29T03:07:53;8.77;;;6.15;;
81619;SDS011;71028;53.410;6.710;2023-07-29T03:10:19;10.18;;;6.10;;
81619;SDS011;71028;53.410;6.710;2023-07-29T03:12:45;11.18;;;6.72;;
81619;SDS011;71028;53.410;6.710;2023-07-29T03:15:11;9.85;;;6.40;;
81619;SDS011;71028;53.410;6.710;2023-07-29T03:17:37;11.65;;;6.88;;
81619;SDS011;71028;53.410;6.710;2023-07-29T03:20:04;12.07;;;6.28;;
81619;SDS011;71028;53.410;6.710;2023-07-29T03:22:30;9.68;;;5.85;;
81619;SDS011;71028;53.410;6.710;2023-07-29T03:24:56;8.70;;;5.60;;
81619;SDS011;71028;53.410;6.710;2023-07-29T03:27:22;11.45;;;6.70;;
81619;SDS011;71028;53.410;6.710;2023-07-29T03:29:48;11.38;;;6.18;;
81619;SDS011;71028;53.410;6.710;2023-07-29T03:32:14;9.95;;;6.68;;
81619;SDS011;71028;53.410;6.710;2023-07-29T03:34:40;8.98;;;5.47;;
81619;SDS011;71028;53.410;6.710;2023-07-29T03:37:06;10.40;;;6.15;;
81619;SDS011;71028;53.410;6.710;2023-07-29T03:39:32;9.00;;;5.85;;
81619;SDS011;71028;53.410;6.710;2023-07-29T03:41:59;10.50;;;6.05;;
81619;SDS011;71028;53.410;6.710;2023-07-29T03:44:25;12.18;;;6.35;;
81619;SDS011;71028;53.410;6.710;2023-07-29T03:46:51;9.68;;;5.82;;
81619;SDS011;71028;53.410;6.710;2023-07-29T03:49:17;11.95;;;6.35;;
81619;SDS011;71028;53.410;6.710;2023-07-29T03:51:43;11.93;;;6.28;;
81619;SDS011;71028;53.410;6.710;2023-07-29T03:54:09;10.82;;;7.15;;
81619;SDS011;71028;53.410;6.710;2023-07-29T03:56:35;9.20;;;5.43;;
81619;SDS011;71028;53.410;6.710;2023-07-29T03:59:02;10.05;;;5.95;;
81619;SDS011;71028;53.410;6.710;2023-07-29T04:01:28;10.60;;;5.78;;
81619;SDS011;71028;53.410;6.710;2023-07-29T04:03:54;9.52;;;6.03;;
81619;SDS011;71028;53.410;6.710;2023-07-29T04:06:20;10.50;;;6.70;;
81619;SDS011;71028;53.410;6.710;2023-07-29T04:08:47;9.43;;;5.28;;
81619;SDS011;71028;53.410;6.710;2023-07-29T04:11:13;10.15;;;5.90;;
81619;SDS011;71028;53.410;6.710;2023-07-29T04:13:39;9.82;;;6.53;;
81619;SDS011;71028;53.410;6.710;2023-07-29T04:16:06;9.98;;;5.57;;
81619;SDS011;71028;53.410;6.710;2023-07-29T04:18:32;8.90;;;5.35;;
81619;SDS011;71028;53.410;6.710;2023-07-29T04:20:58;10.32;;;6.28;;
81619;SDS011;71028;53.410;6.710;2023-07-29T04:23:24;8.80;;;5.63;;
81619;SDS011;71028;53.410;6.710;2023-07-29T04:25:50;9.82;;;5.38;;
81619;SDS011;71028;53.410;6.710;2023-07-29T04:28:16;7.90;;;4.97;;
81619;SDS011;71028;53.410;6.710;2023-07-29T04:30:42;9.40;;;5.43;;
81619;SDS011;71028;53.410;6.710;2023-07-29T04:33:08;12.38;;;6.07;;
81619;SDS011;71028;53.410;6.710;2023-07-29T04:35:34;9.90;;;5.28;;
81619;SDS011;71028;53.410;6.710;2023-07-29T04:38:00;9.45;;;5.55;;
81619;SDS011;71028;53.410;6.710;2023-07-29T04:40:26;9.60;;;5.35;;
81619;SDS011;71028;53.410;6.710;2023-07-29T04:42:52;9.23;;;5.60;;
81619;SDS011;71028;53.410;6.710;2023-07-29T04:45:18;8.48;;;5.05;;
81619;SDS011;71028;53.410;6.710;2023-07-29T04:47:45;8.95;;;5.22;;
81619;SDS011;71028;53.410;6.710;2023-07-29T04:50:11;7.70;;;4.43;;
81619;SDS011;71028;53.410;6.710;2023-07-29T04:52:37;7.45;;;4.65;;
81619;SDS011;71028;53.410;6.710;2023-07-29T04:55:03;10.02;;;5.75;;
81619;SDS011;71028;53.410;6.710;2023-07-29T04:57:29;9.93;;;5.88;;
81619;SDS011;71028;53.410;6.710;2023-07-29T04:59:55;9.40;;;5.25;;
81619;SDS011;71028;53.410;6.710;2023-07-29T05:02:21;6.97;;;4.50;;
81619;SDS011;71028;53.410;6.710;2023-07-29T05:04:47;9.25;;;4.90;;
81619;SDS011;71028;53.410;6.710;2023-07-29T05:07:13;6.65;;;4.28;;
81619;SDS011;71028;53.410;6.710;2023-07-29T05:09:39;9.90;;;4.45;;
81619;SDS011;71028;53.410;6.710;2023-07-29T05:12:05;7.65;;;4.28;;
81619;SDS011;71028;53.410;6.710;2023-07-29T05:14:31;9.05;;;4.18;;
81619;SDS011;71028;53.410;6.710;2023-07-29T05:16:57;7.30;;;4.32;;
81619;SDS011;71028;53.410;6.710;2023-07-29T05:19:23;5.47;;;3.75;;
81619;SDS011;71028;53.410;6.710;2023-07-29T05:21:49;8.00;;;3.90;;
81619;SDS011;71028;53.410;6.710;2023-07-29T05:24:15;9.80;;;4.20;;
81619;SDS011;71028;53.410;6.710;2023-07-29T05:26:41;6.43;;;3.70;;
81619;SDS011;71028;53.410;6.710;2023-07-29T05:29:07;6.35;;;4.13;;
81619;SDS011;71028;53.410;6.710;2023-07-29T05:31:33;5.82;;;3.60;;
81619;SDS011;71028;53.410;6.710;2023-07-29T05:33:59;7.97;;;3.65;;
81619;SDS011;71028;53.410;6.710;2023-07-29T05:36:25;8.38;;;4.57;;
81619;SDS011;71028;53.410;6.710;2023-07-29T05:38:51;5.07;;;3.75;;
81619;SDS011;71028;53.410;6.710;2023-07-29T05:41:17;7.18;;;4.03;;
81619;SDS011;71028;53.410;6.710;2023-07-29T05:43:43;7.18;;;4.05;;
81619;SDS011;71028;53.410;6.710;2023-07-29T05:46:10;8.20;;;3.88;;
81619;SDS011;71028;53.410;6.710;2023-07-29T05:48:36;8.20;;;4.45;;
81619;SDS011;71028;53.410;6.710;2023-07-29T05:51:02;9.02;;;3.60;;
81619;SDS011;71028;53.410;6.710;2023-07-29T05:53:30;7.97;;;3.95;;
81619;SDS011;71028;53.410;6.710;2023-07-29T05:55:56;6.65;;;3.60;;
81619;SDS011;71028;53.410;6.710;2023-07-29T05:58:22;10.63;;;4.15;;
81619;SDS011;71028;53.410;6.710;2023-07-29T06:00:48;7.65;;;3.75;;
81619;SDS011;71028;53.410;6.710;2023-07-29T06:03:14;10.15;;;3.20;;
81619;SDS011;71028;53.410;6.710;2023-07-29T06:05:40;6.47;;;3.10;;
81619;SDS011;71028;53.410;6.710;2023-07-29T06:08:06;5.82;;;3.20;;
81619;SDS011;71028;53.410;6.710;2023-07-29T06:10:33;9.02;;;3.75;;
81619;SDS011;71028;53.410;6.710;2023-07-29T06:13:00;7.03;;;3.17;;
81619;SDS011;71028;53.410;6.710;2023-07-29T06:15:26;6.80;;;2.95;;
81619;SDS011;71028;53.410;6.710;2023-07-29T06:17:52;4.85;;;3.08;;
81619;SDS011;71028;53.410;6.710;2023-07-29T06:20:18;6.10;;;2.92;;
81619;SDS011;71028;53.410;6.710;2023-07-29T06:22:44;7.47;;;3.60;;
81619;SDS011;71028;53.410;6.710;2023-07-29T06:25:10;6.18;;;3.45;;
81619;SDS011;71028;53.410;6.710;2023-07-29T06:27:36;7.10;;;3.80;;
81619;SDS011;71028;53.410;6.710;2023-07-29T06:30:02;7.35;;;3.38;;
81619;SDS011;71028;53.410;6.710;2023-07-29T06:32:28;8.07;;;3.53;;
81619;SDS011;71028;53.410;6.710;2023-07-29T06:34:54;6.45;;;3.28;;
81619;SDS011;71028;53.410;6.710;2023-07-29T06:37:20;7.82;;;3.25;;
81619;SDS011;71028;53.410;6.710;2023-07-29T06:39:46;7.75;;;3.45;;
81619;SDS011;71028;53.410;6.710;2023-07-29T06:42:12;6.13;;;3.08;;
81619;SDS011;71028;53.410;6.710;2023-07-29T06:44:39;6.38;;;3.55;;
81619;SDS011;71028;53.410;6.710;2023-07-29T06:47:05;5.22;;;2.90;;
81619;SDS011;71028;53.410;6.710;2023-07-29T06:49:32;6.32;;;2.95;;
81619;SDS011;71028;53.410;6.710;2023-07-29T06:51:58;6.38;;;2.80;;
81619;SDS011;71028;53.410;6.710;2023-07-29T06:54:24;5.57;;;3.08;;
81619;SDS011;71028;53.410;6.710;2023-07-29T06:56:53;6.90;;;2.78;;
81619;SDS011;71028;53.410;6.710;2023-07-29T06:59:19;9.15;;;3.78;;
81619;SDS011;71028;53.410;6.710;2023-07-29T07:01:45;6.93;;;2.80;;
81619;SDS011;71028;53.410;6.710;2023-07-29T07:04:11;8.45;;;3.28;;
81619;SDS011;71028;53.410;6.710;2023-07-29T07:06:37;6.22;;;2.63;;
81619;SDS011;71028;53.410;6.710;2023-07-29T07:09:03;5.45;;;2.85;;
81619;SDS011;71028;53.410;6.710;2023-07-29T07:11:29;6.70;;;3.45;;
81619;SDS011;71028;53.410;6.710;2023-07-29T07:13:55;5.95;;;2.80;;
81619;SDS011;71028;53.410;6.710;2023-07-29T07:16:21;8.20;;;3.38;;
81619;SDS011;71028;53.410;6.710;2023-07-29T07:18:47;8.95;;;3.03;;
81619;SDS011;71028;53.410;6.710;2023-07-29T07:21:13;6.57;;;2.72;;
81619;SDS011;71028;53.410;6.710;2023-07-29T07:23:39;6.50;;;2.60;;
81619;SDS011;71028;53.410;6.710;2023-07-29T07:26:05;7.60;;;2.78;;
81619;SDS011;71028;53.410;6.710;2023-07-29T07:28:31;6.43;;;3.00;;
81619;SDS011;71028;53.410;6.710;2023-07-29T07:30:57;7.22;;;3.30;;
81619;SDS011;71028;53.410;6.710;2023-07-29T07:33:24;8.45;;;3.13;;
81619;SDS011;71028;53.410;6.710;2023-07-29T07:35:50;8.38;;;3.05;;
81619;SDS011;71028;53.410;6.710;2023-07-29T07:38:16;6.18;;;2.92;;
81619;SDS011;71028;53.410;6.710;2023-07-29T07:40:42;6.32;;;3.20;;
81619;SDS011;71028;53.410;6.710;2023-07-29T07:43:08;7.88;;;3.33;;
81619;SDS011;71028;53.410;6.710;2023-07-29T07:45:35;6.65;;;3.40;;
81619;SDS011;71028;53.410;6.710;2023-07-29T07:48:01;5.20;;;3.35;;
81619;SDS011;71028;53.410;6.710;2023-07-29T07:50:29;6.53;;;3.25;;
81619;SDS011;71028;53.410;6.710;2023-07-29T07:52:55;7.85;;;4.10;;
81619;SDS011;71028;53.410;6.710;2023-07-29T07:55:21;5.65;;;3.78;;
81619;SDS011;71028;53.410;6.710;2023-07-29T07:57:47;6.90;;;3.30;;
81619;SDS011;71028;53.410;6.710;2023-07-29T08:00:13;7.78;;;3.40;;
81619;SDS011;71028;53.410;6.710;2023-07-29T08:02:40;7.00;;;3.60;;
81619;SDS011;71028;53.410;6.710;2023-07-29T08:05:07;4.43;;;3.15;;
81619;SDS011;71028;53.410;6.710;2023-07-29T08:07:33;8.13;;;3.70;;
81619;SDS011;71028;53.410;6.710;2023-07-29T08:09:59;5.20;;;2.92;;
81619;SDS011;71028;53.410;6.710;2023-07-29T08:12:25;6.10;;;2.83;;
81619;SDS011;71028;53.410;6.710;2023-07-29T08:14:51;8.20;;;3.13;;
81619;SDS011;71028;53.410;6.710;2023-07-29T08:17:17;7.40;;;3.10;;
81619;SDS011;71028;53.410;6.710;2023-07-29T08:19:43;4.35;;;2.70;;
81619;SDS011;71028;53.410;6.710;2023-07-29T08:22:09;5.45;;;3.00;;
81619;SDS011;71028;53.410;6.710;2023-07-29T08:24:35;7.05;;;2.90;;
81619;SDS011;71028;53.410;6.710;2023-07-29T08:27:01;5.95;;;2.97;;
81619;SDS011;71028;53.410;6.710;2023-07-29T08:29:27;5.50;;;2.70;;
81619;SDS011;71028;53.410;6.710;2023-07-29T08:31:53;6.70;;;3.20;;
81619;SDS011;71028;53.410;6.710;2023-07-29T08:34:20;8.13;;;3.60;;
81619;SDS011;71028;53.410;6.710;2023-07-29T08:36:46;7.18;;;3.22;;
81619;SDS011;71028;53.410;6.710;2023-07-29T08:39:12;6.10;;;3.53;;
81619;SDS011;71028;53.410;6.710;2023-07-29T08:42:20;7.85;;;3.13;;
81619;SDS011;71028;53.410;6.710;2023-07-29T08:44:30;7.88;;;3.40;;
81619;SDS011;71028;53.410;6.710;2023-07-29T08:46:59;5.32;;;2.33;;
81619;SDS011;71028;53.410;6.710;2023-07-29T08:49:25;7.13;;;2.80;;
81619;SDS011;71028;53.410;6.710;2023-07-29T08:51:53;5.93;;;2.75;;
81619;SDS011;71028;53.410;6.710;2023-07-29T08:54:19;6.90;;;2.75;;
81619;SDS011;71028;53.410;6.710;2023-07-29T08:56:45;5.85;;;2.70;;
81619;SDS011;71028;53.410;6.710;2023-07-29T08:59:12;6.95;;;2.67;;
81619;SDS011;71028;53.410;6.710;2023-07-29T09:01:38;5.45;;;2.85;;
81619;SDS011;71028;53.410;6.710;2023-07-29T09:04:04;4.85;;;2.50;;
81619;SDS011;71028;53.410;6.710;2023-07-29T09:06:31;7.82;;;2.28;;
81619;SDS011;71028;53.410;6.710;2023-07-29T09:08:57;5.38;;;2.67;;
81619;SDS011;71028;53.410;6.710;2023-07-29T09:11:24;6.68;;;2.65;;
81619;SDS011;71028;53.410;6.710;2023-07-29T09:13:50;5.18;;;2.25;;
81619;SDS011;71028;53.410;6.710;2023-07-29T09:16:17;4.32;;;2.08;;
81619;SDS011;71028;53.410;6.710;2023-07-29T09:18:43;6.10;;;2.05;;
81619;SDS011;71028;53.410;6.710;2023-07-29T09:21:09;7.03;;;2.53;;
81619;SDS011;71028;53.410;6.710;2023-07-29T09:23:39;5.15;;;2.42;;
81619;SDS011;71028;53.410;6.710;2023-07-29T09:26:06;3.58;;;1.95;;
81619;SDS011;71028;53.410;6.710;2023-07-29T09:28:36;7.00;;;2.72;;
81619;SDS011;71028;53.410;6.710;2023-07-29T09:31:02;7.75;;;2.35;;
81619;SDS011;71028;53.410;6.710;2023-07-29T09:33:35;3.92;;;2.15;;
81619;SDS011;71028;53.410;6.710;2023-07-29T09:36:02;5.05;;;1.95;;
81619;SDS011;71028;53.410;6.710;2023-07-29T09:38:28;2.88;;;1.80;;
81619;SDS011;71028;53.410;6.710;2023-07-29T09:40:57;3.63;;;1.80;;
81619;SDS011;71028;53.410;6.710;2023-07-29T09:43:30;2.58;;;1.95;;
81619;SDS011;71028;53.410;6.710;2023-07-29T09:46:00;4.47;;;2.05;;
81619;SDS011;71028;53.410;6.710;2023-07-29T09:48:26;4.10;;;2.08;;
81619;SDS011;71028;53.410;6.710;2023-07-29T09:50:54;4.13;;;1.80;;
81619;SDS011;71028;53.410;6.710;2023-07-29T09:53:20;6.32;;;2.10;;
81619;SDS011;71028;53.410;6.710;2023-07-29T09:55:47;4.47;;;1.60;;
81619;SDS011;71028;53.410;6.710;2023-07-29T09:58:19;5.13;;;1.52;;
81619;SDS011;71028;53.410;6.710;2023-07-29T10:00:51;3.55;;;1.42;;
81619;SDS011;71028;53.410;6.710;2023-07-29T10:03:19;4.05;;;1.55;;
81619;SDS011;71028;53.410;6.710;2023-07-29T10:05:46;4.28;;;1.50;;
81619;SDS011;71028;53.410;6.710;2023-07-29T10:08:12;4.00;;;1.75;;
81619;SDS011;71028;53.410;6.710;2023-07-29T10:10:39;3.17;;;1.60;;
81619;SDS011;71028;53.410;6.710;2023-07-29T10:13:05;2.83;;;1.58;;
81619;SDS011;71028;53.410;6.710;2023-07-29T10:15:31;1.98;;;1.10;;
81619;SDS011;71028;53.410;6.710;2023-07-29T10:17:57;3.55;;;1.42;;
81619;SDS011;71028;53.410;6.710;2023-07-29T10:20:24;4.05;;;1.40;;
81619;SDS011;71028;53.410;6.710;2023-07-29T10:22:50;4.40;;;1.50;;
81619;SDS011;71028;53.410;6.710;2023-07-29T10:25:18;2.47;;;1.20;;
81619;SDS011;71028;53.410;6.710;2023-07-29T10:27:56;3.28;;;1.20;;
81619;SDS011;71028;53.410;6.710;2023-07-29T10:30:22;2.85;;;1.17;;
81619;SDS011;71028;53.410;6.710;2023-07-29T10:32:50;5.43;;;1.30;;
81619;SDS011;71028;53.410;6.710;2023-07-29T10:35:17;2.10;;;1.05;;
81619;SDS011;71028;53.410;6.710;2023-07-29T10:37:43;4.72;;;1.40;;
81619;SDS011;71028;53.410;6.710;2023-07-29T10:40:10;2.92;;;1.20;;
81619;SDS011;71028;53.410;6.710;2023-07-29T10:42:37;2.25;;;1.25;;
81619;SDS011;71028;53.410;6.710;2023-07-29T10:47:55;5.32;;;1.60;;
81619;SDS011;71028;53.410;6.710;2023-07-29T10:50:21;3.95;;;1.30;;
81619;SDS011;71028;53.410;6.710;2023-07-29T10:52:49;4.63;;;1.20;;
81619;SDS011;71028;53.410;6.710;2023-07-29T10:55:36;1.85;;;1.05;;
81619;SDS011;71028;53.410;6.710;2023-07-29T10:58:09;2.13;;;1.20;;
81619;SDS011;71028;53.410;6.710;2023-07-29T11:00:37;3.20;;;1.27;;
81619;SDS011;71028;53.410;6.710;2023-07-29T11:03:06;2.72;;;1.23;;
81619;SDS011;71028;53.410;6.710;2023-07-29T11:05:51;2.03;;;0.80;;
81619;SDS011;71028;53.410;6.710;2023-07-29T11:08:30;2.40;;;1.20;;
81619;SDS011;71028;53.410;6.710;2023-07-29T11:10:57;1.88;;;1.00;;
81619;SDS011;71028;53.410;6.710;2023-07-29T11:13:26;3.10;;;1.20;;
81619;SDS011;71028;53.410;6.710;2023-07-29T11:15:53;2.60;;;1.20;;
81619;SDS011;71028;53.410;6.710;2023-07-29T11:18:20;3.00;;;1.10;;
81619;SDS011;71028;53.410;6.710;2023-07-29T11:20:46;3.20;;;1.23;;
81619;SDS011;71028;53.410;6.710;2023-07-29T11:23:13;2.50;;;0.90;;
81619;SDS011;71028;53.410;6.710;2023-07-29T11:25:39;2.70;;;1.33;;
81619;SDS011;71028;53.410;6.710;2023-07-29T11:28:06;1.73;;;1.05;;
81619;SDS011;71028;53.410;6.710;2023-07-29T11:30:32;4.65;;;1.20;;
81619;SDS011;71028;53.410;6.710;2023-07-29T11:32:59;3.67;;;1.23;;
81619;SDS011;71028;53.410;6.710;2023-07-29T11:35:25;2.28;;;1.17;;
81619;SDS011;71028;53.410;6.710;2023-07-29T11:37:52;5.20;;;1.38;;
81619;SDS011;71028;53.410;6.710;2023-07-29T11:40:19;3.08;;;1.40;;
81619;SDS011;71028;53.410;6.710;2023-07-29T11:42:45;4.72;;;1.33;;
81619;SDS011;71028;53.410;6.710;2023-07-29T11:45:12;2.88;;;1.60;;
81619;SDS011;71028;53.410;6.710;2023-07-29T11:47:38;3.28;;;1.80;;
81619;SDS011;71028;53.410;6.710;2023-07-29T11:50:08;4.15;;;1.42;;
81619;SDS011;71028;53.410;6.710;2023-07-29T11:52:35;5.85;;;1.70;;
81619;SDS011;71028;53.410;6.710;2023-07-29T11:55:01;2.55;;;1.30;;
81619;SDS011;71028;53.410;6.710;2023-07-29T11:57:28;3.00;;;1.60;;
81619;SDS011;71028;53.410;6.710;2023-07-29T11:59:54;4.43;;;1.42;;
81619;SDS011;71028;53.410;6.710;2023-07-29T12:02:20;3.83;;;1.50;;
81619;SDS011;71028;53.410;6.710;2023-07-29T12:04:47;2.53;;;1.55;;
81619;SDS011;71028;53.410;6.710;2023-07-29T12:07:14;3.10;;;1.20;;
81619;SDS011;71028;53.410;6.710;2023-07-29T12:09:41;3.33;;;1.30;;
81619;SDS011;71028;53.410;6.710;2023-07-29T12:12:07;2.38;;;1.25;;
81619;SDS011;71028;53.410;6.710;2023-07-29T12:14:34;3.03;;;1.25;;
81619;SDS011;71028;53.410;6.710;2023-07-29T12:17:00;3.72;;;1.42;;
81619;SDS011;71028;53.410;6.710;2023-07-29T12:19:36;2.97;;;1.30;;
81619;SDS011;71028;53.410;6.710;2023-07-29T12:22:03;3.83;;;1.52;;
81619;SDS011;71028;53.410;6.710;2023-07-29T12:24:33;7.25;;;1.95;;
81619;SDS011;71028;53.410;6.710;2023-07-29T12:26:59;6.38;;;2.00;;
81619;SDS011;71028;53.410;6.710;2023-07-29T12:29:25;6.25;;;1.92;;
81619;SDS011;71028;53.410;6.710;2023-07-29T12:31:59;4.03;;;1.75;;
81619;SDS011;71028;53.410;6.710;2023-07-29T12:34:25;4.75;;;2.42;;
81619;SDS011;71028;53.410;6.710;2023-07-29T12:36:53;3.75;;;2.10;;
81619;SDS011;71028;53.410;6.710;2023-07-29T12:39:30;3.25;;;2.08;;
81619;SDS011;71028;53.410;6.710;2023-07-29T12:41:57;3.83;;;2.03;;
81619;SDS011;71028;53.410;6.710;2023-07-29T12:44:29;6.78;;;2.03;;
81619;SDS011;71028;53.410;6.710;2023-07-29T12:46:55;2.85;;;1.80;;
81619;SDS011;71028;53.410;6.710;2023-07-29T12:49:21;3.20;;;1.50;;
81619;SDS011;71028;53.410;6.710;2023-07-29T12:51:48;2.45;;;1.73;;
81619;SDS011;71028;53.410;6.710;2023-07-29T12:54:14;2.55;;;1.50;;
81619;SDS011;71028;53.410;6.710;2023-07-29T12:56:40;5.65;;;1.65;;
81619;SDS011;71028;53.410;6.710;2023-07-29T12:59:06;2.10;;;1.50;;
81619;SDS011;71028;53.410;6.710;2023-07-29T13:01:32;3.58;;;1.77;;
81619;SDS011;71028;53.410;6.710;2023-07-29T13:03:58;4.28;;;1.38;;
81619;SDS011;71028;53.410;6.710;2023-07-29T13:06:24;2.40;;;1.63;;
81619;SDS011;71028;53.410;6.710;2023-07-29T13:08:50;2.00;;;1.38;;
81619;SDS011;71028;53.410;6.710;2023-07-29T13:11:16;3.30;;;1.42;;
81619;SDS011;71028;53.410;6.710;2023-07-29T13:13:43;2.08;;;1.10;;
81619;SDS011;71028;53.410;6.710;2023-07-29T13:16:10;3.00;;;1.38;;
81619;SDS011;71028;53.410;6.710;2023-07-29T13:18:36;4.70;;;1.55;;
81619;SDS011;71028;53.410;6.710;2023-07-29T13:21:02;2.63;;;1.23;;
81619;SDS011;71028;53.410;6.710;2023-07-29T13:23:28;4.43;;;1.45;;
81619;SDS011;71028;53.410;6.710;2023-07-29T13:25:55;2.90;;;1.40;;
81619;SDS011;71028;53.410;6.710;2023-07-29T13:28:21;3.05;;;1.40;;
81619;SDS011;71028;53.410;6.710;2023-07-29T13:30:47;4.45;;;1.52;;
81619;SDS011;71028;53.410;6.710;2023-07-29T13:33:13;4.30;;;1.67;;
81619;SDS011;71028;53.410;6.710;2023-07-29T13:35:39;7.32;;;1.50;;
81619;SDS011;71028;53.410;6.710;2023-07-29T13:38:05;4.38;;;1.40;;
81619;SDS011;71028;53.410;6.710;2023-07-29T13:40:31;4.63;;;1.50;;
81619;SDS011;71028;53.410;6.710;2023-07-29T13:42:57;3.28;;;1.17;;
81619;SDS011;71028;53.410;6.710;2023-07-29T13:45:23;2.90;;;1.13;;
81619;SDS011;71028;53.410;6.710;2023-07-29T13:47:49;3.63;;;1.27;;
81619;SDS011;71028;53.410;6.710;2023-07-29T13:50:16;4.60;;;1.40;;
81619;SDS011;71028;53.410;6.710;2023-07-29T13:52:42;2.03;;;1.20;;
81619;SDS011;71028;53.410;6.710;2023-07-29T13:55:09;3.05;;;1.35;;
81619;SDS011;71028;53.410;6.710;2023-07-29T13:57:36;3.72;;;1.20;;
81619;SDS011;71028;53.410;6.710;2023-07-29T14:00:02;3.83;;;1.08;;
81619;SDS011;71028;53.410;6.710;2023-07-29T14:02:28;2.38;;;1.30;;
81619;SDS011;71028;53.410;6.710;2023-07-29T14:04:56;3.53;;;1.50;;
81619;SDS011;71028;53.410;6.710;2023-07-29T14:07:22;1.98;;;1.17;;
81619;SDS011;71028;53.410;6.710;2023-07-29T14:09:48;3.22;;;1.63;;
81619;SDS011;71028;53.410;6.710;2023-07-29T14:12:14;4.93;;;1.27;;
81619;SDS011;71028;53.410;6.710;2023-07-29T14:14:43;5.38;;;1.48;;
81619;SDS011;71028;53.410;6.710;2023-07-29T14:17:09;2.55;;;1.25;;
81619;SDS011;71028;53.410;6.710;2023-07-29T14:19:36;3.33;;;1.27;;
81619;SDS011;71028;53.410;6.710;2023-07-29T14:22:02;4.68;;;1.40;;
81619;SDS011;71028;53.410;6.710;2023-07-29T14:24:28;2.80;;;1.20;;
81619;SDS011;71028;53.410;6.710;2023-07-29T14:26:54;4.60;;;1.33;;
81619;SDS011;71028;53.410;6.710;2023-07-29T14:29:20;3.47;;;1.30;;
81619;SDS011;71028;53.410;6.710;2023-07-29T14:31:46;3.28;;;1.45;;
81619;SDS011;71028;53.410;6.710;2023-07-29T14:34:12;3.15;;;1.30;;
81619;SDS011;71028;53.410;6.710;2023-07-29T14:36:38;2.65;;;1.20;;
81619;SDS011;71028;53.410;6.710;2023-07-29T14:39:04;5.88;;;1.50;;
81619;SDS011;71028;53.410;6.710;2023-07-29T14:41:30;2.95;;;1.73;;
81619;SDS011;71028;53.410;6.710;2023-07-29T14:43:56;2.67;;;1.30;;
81619;SDS011;71028;53.410;6.710;2023-07-29T14:46:22;2.55;;;1.50;;
81619;SDS011;71028;53.410;6.710;2023-07-29T14:48:48;3.28;;;1.50;;
81619;SDS011;71028;53.410;6.710;2023-07-29T14:51:14;4.07;;;1.48;;
81619;SDS011;71028;53.410;6.710;2023-07-29T14:53:40;7.28;;;1.58;;
81619;SDS011;71028;53.410;6.710;2023-07-29T14:56:08;2.78;;;1.42;;